createdAt,value
2023-05-09T00:00:28.761Z,5.35
2023-05-09T00:01:32.489Z,4.35
2023-05-09T00:02:36.929Z,4.32
2023-05-09T00:03:40.445Z,3.72
2023-05-09T00:04:43.388Z,4.88
2023-05-09T00:05:47.905Z,7.72
2023-05-09T00:06:51.289Z,4.15
2023-05-09T00:07:54.795Z,3.80
2023-05-09T00:08:58.187Z,2.30
2023-05-09T00:10:02.112Z,6.57
2023-05-09T00:11:05.720Z,4.15
2023-05-09T00:12:08.816Z,5.18
2023-05-09T00:13:12.688Z,3.15
2023-05-09T00:14:16.658Z,7.85
2023-05-09T00:15:20.432Z,5.72
2023-05-09T00:16:25.074Z,3.63
2023-05-09T00:17:29.092Z,7.22
2023-05-09T00:18:35.016Z,3.60
2023-05-09T00:19:38.540Z,5.55
2023-05-09T00:20:45.281Z,2.60
2023-05-09T00:21:48.342Z,5.13
2023-05-09T00:22:51.749Z,4.38
2023-05-09T00:23:55.063Z,2.72
2023-05-09T00:24:58.559Z,9.32
2023-05-09T00:26:02.164Z,5.78
2023-05-09T00:27:05.435Z,6.85
2023-05-09T00:28:09.044Z,2.63
2023-05-09T00:29:12.432Z,4.07
2023-05-09T00:30:15.658Z,4.95
2023-05-09T00:31:18.642Z,5.60
2023-05-09T00:32:22.114Z,3.17
2023-05-09T00:33:27.951Z,6.45
2023-05-09T00:34:31.078Z,5.05
2023-05-09T00:35:35.284Z,5.05
2023-05-09T00:36:38.244Z,4.93
2023-05-09T00:37:41.563Z,5.18
2023-05-09T00:38:44.878Z,5.78
2023-05-09T00:39:50.788Z,8.90
2023-05-09T00:40:53.752Z,10.93
2023-05-09T00:41:57.246Z,4.78
2023-05-09T00:43:00.841Z,4.85
2023-05-09T00:44:04.313Z,6.28
2023-05-09T00:45:08.513Z,8.60
2023-05-09T00:46:12.733Z,4.85
2023-05-09T00:47:16.052Z,2.03
2023-05-09T00:48:19.864Z,3.83
2023-05-09T00:49:23.535Z,7.88
2023-05-09T00:50:27.151Z,4.07
2023-05-09T00:51:30.739Z,3.45
2023-05-09T00:52:34.317Z,3.15
2023-05-09T00:53:37.793Z,4.72
2023-05-09T00:54:41.542Z,3.08
2023-05-09T00:55:45.136Z,5.78
2023-05-09T00:56:48.514Z,7.50
2023-05-09T00:57:52.039Z,8.65
2023-05-09T00:58:56.587Z,2.33
2023-05-09T01:00:00.070Z,6.57
2023-05-09T01:01:04.775Z,4.30
2023-05-09T01:02:08.425Z,3.40
2023-05-09T01:03:12.149Z,7.65
2023-05-09T01:04:15.720Z,3.30
2023-05-09T01:05:19.890Z,4.22
2023-05-09T01:06:34.834Z,4.13
2023-05-09T01:08:11.332Z,6.63
2023-05-09T01:09:37.298Z,3.50
2023-05-09T01:10:50.848Z,2.83
2023-05-09T01:12:05.976Z,3.25
2023-05-09T01:13:40.300Z,4.03
2023-05-09T01:15:09.720Z,5.60
2023-05-09T01:16:28.056Z,5.43
2023-05-09T01:17:50.457Z,5.72
2023-05-09T01:19:24.934Z,8.35
2023-05-09T01:20:30.660Z,4.00
2023-05-09T01:21:33.851Z,6.38
2023-05-09T01:22:36.962Z,3.67
2023-05-09T01:23:47.080Z,4.90
2023-05-09T01:25:21.824Z,5.63
2023-05-09T01:26:43.015Z,4.13
2023-05-09T01:28:08.355Z,4.38
2023-05-09T01:29:24.574Z,5.95
2023-05-09T01:30:28.057Z,2.90
2023-05-09T01:31:31.684Z,6.95
2023-05-09T01:32:35.780Z,6.63
2023-05-09T01:33:40.323Z,7.28
2023-05-09T01:34:44.931Z,5.78
2023-05-09T01:35:51.305Z,6.05
2023-05-09T01:36:57.178Z,6.78
2023-05-09T01:38:00.568Z,5.00
2023-05-09T01:39:05.127Z,7.85
2023-05-09T01:40:11.206Z,7.55
2023-05-09T01:41:15.150Z,7.22
2023-05-09T01:42:19.861Z,4.22
2023-05-09T01:43:23.958Z,7.13
2023-05-09T01:44:27.611Z,9.73
2023-05-09T01:45:31.283Z,6.40
2023-05-09T01:46:35.138Z,9.50
2023-05-09T01:47:38.888Z,5.35
2023-05-09T01:48:43.317Z,9.50
2023-05-09T01:49:46.758Z,6.70
2023-05-09T01:50:49.938Z,7.28
2023-05-09T01:51:53.501Z,8.07
2023-05-09T01:52:57.693Z,4.68
2023-05-09T01:54:01.097Z,11.38
2023-05-09T01:55:04.361Z,6.05
2023-05-09T01:56:08.297Z,6.90
2023-05-09T01:57:11.769Z,6.30
2023-05-09T01:58:15.036Z,5.72
2023-05-09T01:59:18.489Z,8.65
2023-05-09T02:00:21.952Z,7.07
2023-05-09T02:01:25.327Z,3.38
2023-05-09T02:02:29.101Z,5.25
2023-05-09T02:03:34.961Z,8.45
2023-05-09T02:04:38.756Z,7.65
2023-05-09T02:05:42.541Z,6.13
2023-05-09T02:06:45.712Z,6.28
2023-05-09T02:07:48.978Z,8.07
2023-05-09T02:08:52.799Z,5.75
2023-05-09T02:09:57.417Z,5.60
2023-05-09T02:11:00.874Z,5.97
2023-05-09T02:12:05.317Z,10.07
2023-05-09T02:13:09.196Z,7.63
2023-05-09T02:14:13.199Z,8.23
2023-05-09T02:15:16.889Z,1.83
2023-05-09T02:16:20.783Z,3.78
2023-05-09T02:17:24.491Z,3.90
2023-05-09T02:18:28.457Z,5.90
2023-05-09T02:19:32.032Z,3.85
2023-05-09T02:20:38.185Z,5.00
2023-05-09T02:21:41.701Z,8.88
2023-05-09T02:22:47.207Z,8.27
2023-05-09T02:23:50.771Z,7.30
2023-05-09T02:24:53.866Z,6.60
2023-05-09T02:25:56.857Z,6.65
2023-05-09T02:27:00.317Z,9.73
2023-05-09T02:28:03.391Z,7.18
2023-05-09T02:29:08.090Z,7.80
2023-05-09T02:30:15.056Z,4.15
2023-05-09T02:31:18.761Z,5.85
2023-05-09T02:32:26.699Z,7.78
2023-05-09T02:33:30.019Z,9.25
2023-05-09T02:34:33.198Z,4.82
2023-05-09T02:35:36.432Z,6.13
2023-05-09T02:36:39.634Z,6.93
2023-05-09T02:37:43.543Z,4.30
2023-05-09T02:38:46.936Z,3.22
2023-05-09T02:39:50.171Z,4.97
2023-05-09T02:40:53.621Z,5.22
2023-05-09T02:41:57.179Z,5.65
2023-05-09T02:43:02.210Z,8.57
2023-05-09T02:44:05.670Z,6.03
2023-05-09T02:45:11.457Z,6.80
2023-05-09T02:46:15.367Z,9.48
2023-05-09T02:47:18.973Z,5.75
2023-05-09T02:48:22.685Z,7.28
2023-05-09T02:49:31.890Z,7.25
2023-05-09T02:50:39.231Z,5.13
2023-05-09T02:51:42.990Z,11.63
2023-05-09T02:52:46.538Z,5.97
2023-05-09T02:53:50.189Z,6.03
2023-05-09T02:54:54.101Z,5.60
2023-05-09T02:55:57.601Z,7.45
2023-05-09T02:57:00.802Z,6.20
2023-05-09T02:58:13.359Z,7.32
2023-05-09T02:59:19.310Z,7.28
2023-05-09T03:00:24.824Z,7.32
2023-05-09T03:01:28.591Z,6.63
2023-05-09T03:02:32.580Z,8.95
2023-05-09T03:03:35.975Z,9.85
2023-05-09T03:04:41.707Z,7.65
2023-05-09T03:05:44.585Z,16.00
2023-05-09T03:06:47.521Z,5.88
2023-05-09T03:07:51.937Z,8.95
2023-05-09T03:08:55.334Z,9.55
2023-05-09T03:10:00.242Z,6.82
2023-05-09T03:11:04.148Z,10.73
2023-05-09T03:12:07.562Z,8.40
2023-05-09T03:13:12.309Z,12.73
2023-05-09T03:14:16.431Z,8.27
2023-05-09T03:15:20.943Z,16.52
2023-05-09T03:16:24.146Z,12.88
2023-05-09T03:17:28.520Z,15.60
2023-05-09T03:18:32.288Z,13.35
2023-05-09T03:19:36.659Z,11.13
2023-05-09T03:20:46.163Z,15.70
2023-05-09T03:21:49.264Z,12.93
2023-05-09T03:22:53.302Z,19.88
2023-05-09T03:23:57.470Z,12.25
2023-05-09T03:25:01.349Z,10.40
2023-05-09T03:26:05.448Z,11.32
2023-05-09T03:27:08.880Z,16.88
2023-05-09T03:28:12.338Z,13.55
2023-05-09T03:29:16.166Z,15.40
2023-05-09T03:30:19.769Z,9.50
2023-05-09T03:31:24.836Z,8.35
2023-05-09T03:32:28.871Z,6.18
2023-05-09T03:33:32.541Z,13.13
2023-05-09T03:34:37.347Z,15.40
2023-05-09T03:35:42.344Z,9.32
2023-05-09T03:36:46.255Z,18.08
2023-05-09T03:37:51.516Z,7.75
2023-05-09T03:38:55.042Z,5.43
2023-05-09T03:39:59.222Z,14.85
2023-05-09T03:41:03.146Z,10.07
2023-05-09T03:42:06.555Z,14.85
2023-05-09T03:43:10.212Z,9.95
2023-05-09T03:44:13.659Z,11.43
2023-05-09T03:45:17.079Z,8.50
2023-05-09T03:46:22.667Z,6.70
2023-05-09T03:47:26.098Z,16.45
2023-05-09T03:48:29.851Z,17.95
2023-05-09T03:49:33.758Z,13.30
2023-05-09T03:50:37.686Z,13.40
2023-05-09T03:51:42.117Z,12.70
2023-05-09T03:52:51.454Z,12.77
2023-05-09T03:53:55.025Z,21.25
2023-05-09T03:54:59.147Z,9.45
2023-05-09T03:56:02.736Z,20.05
2023-05-09T03:57:09.812Z,16.67
2023-05-09T03:58:13.547Z,15.25
2023-05-09T03:59:18.606Z,17.92
2023-05-09T04:00:22.406Z,21.17
2023-05-09T04:01:37.222Z,12.00
2023-05-09T04:02:42.801Z,10.70
2023-05-09T04:03:54.724Z,17.95
2023-05-09T04:04:58.118Z,16.52
2023-05-09T04:06:01.657Z,13.77
2023-05-09T04:07:12.497Z,13.20
2023-05-09T04:08:15.708Z,15.07
2023-05-09T04:09:19.101Z,12.98
2023-05-09T04:10:23.763Z,14.45
2023-05-09T04:11:27.551Z,15.80
2023-05-09T04:12:33.186Z,16.50
2023-05-09T04:13:36.362Z,13.43
2023-05-09T04:14:48.939Z,15.48
2023-05-09T04:15:53.360Z,9.30
2023-05-09T04:16:57.014Z,10.43
2023-05-09T04:18:00.444Z,16.23
2023-05-09T04:19:05.163Z,14.57
2023-05-09T04:20:08.954Z,10.50
2023-05-09T04:21:12.332Z,6.78
2023-05-09T04:22:16.106Z,11.60
2023-05-09T04:23:19.733Z,9.00
2023-05-09T04:24:23.871Z,15.65
2023-05-09T04:25:27.075Z,18.10
2023-05-09T04:26:31.766Z,12.60
2023-05-09T04:27:36.103Z,8.82
2023-05-09T04:28:39.708Z,11.05
2023-05-09T04:29:43.414Z,13.20
2023-05-09T04:30:47.016Z,13.45
2023-05-09T04:31:50.558Z,10.75
2023-05-09T04:32:55.829Z,14.38
2023-05-09T04:33:59.334Z,21.60
2023-05-09T04:35:09.099Z,9.15
2023-05-09T04:36:16.465Z,15.30
2023-05-09T04:37:20.718Z,13.45
2023-05-09T04:38:24.667Z,11.77
2023-05-09T04:39:27.863Z,15.93
2023-05-09T04:40:42.202Z,15.30
2023-05-09T04:41:47.196Z,9.68
2023-05-09T04:42:52.113Z,12.00
2023-05-09T04:43:58.198Z,14.52
2023-05-09T04:45:03.581Z,13.02
2023-05-09T04:46:08.639Z,10.98
2023-05-09T04:47:13.634Z,13.70
2023-05-09T04:48:17.208Z,15.05
2023-05-09T04:49:20.496Z,11.52
2023-05-09T04:50:23.883Z,14.13
2023-05-09T04:51:27.505Z,8.43
2023-05-09T04:52:30.968Z,5.93
2023-05-09T04:53:34.913Z,9.93
2023-05-09T04:54:38.446Z,7.40
2023-05-09T04:55:43.061Z,8.43
2023-05-09T04:56:48.802Z,14.10
2023-05-09T04:57:53.441Z,18.00
2023-05-09T04:58:57.294Z,18.10
2023-05-09T05:00:00.788Z,8.63
2023-05-09T05:01:07.537Z,11.40
2023-05-09T05:02:11.489Z,11.40
2023-05-09T05:03:14.492Z,17.55
2023-05-09T05:04:17.833Z,9.82
2023-05-09T05:05:24.900Z,9.77
2023-05-09T05:06:32.248Z,12.93
2023-05-09T05:07:36.358Z,7.53
2023-05-09T05:08:39.692Z,8.27
2023-05-09T05:09:42.845Z,8.27
2023-05-09T05:10:46.877Z,12.13
2023-05-09T05:12:00.849Z,9.05
2023-05-09T05:13:07.995Z,11.48
2023-05-09T05:14:14.413Z,9.55
2023-05-09T05:15:19.883Z,7.47
2023-05-09T05:16:24.307Z,7.90
2023-05-09T05:17:30.237Z,7.95
2023-05-09T05:18:36.509Z,10.18
2023-05-09T05:19:40.920Z,11.50
2023-05-09T05:20:44.757Z,10.05
2023-05-09T05:21:48.390Z,3.55
2023-05-09T05:22:52.177Z,7.00
2023-05-09T05:23:55.898Z,7.35
2023-05-09T05:24:59.553Z,8.15
2023-05-09T05:26:02.769Z,9.95
2023-05-09T05:27:07.276Z,7.63
2023-05-09T05:28:11.449Z,7.55
2023-05-09T05:29:16.048Z,8.55
2023-05-09T05:30:19.496Z,10.20
2023-05-09T05:31:23.122Z,4.97
2023-05-09T05:32:26.421Z,9.00
2023-05-09T05:33:29.646Z,11.68
2023-05-09T05:34:33.312Z,12.43
2023-05-09T05:35:36.787Z,5.82
2023-05-09T05:36:39.758Z,8.23
2023-05-09T05:37:43.369Z,8.55
2023-05-09T05:38:48.139Z,7.20
2023-05-09T05:39:52.154Z,6.70
2023-05-09T05:40:55.357Z,3.90
2023-05-09T05:42:00.433Z,9.90
2023-05-09T05:43:03.952Z,6.85
2023-05-09T05:44:09.287Z,10.20
2023-05-09T05:45:13.418Z,6.65
2023-05-09T05:46:20.538Z,8.63
2023-05-09T05:47:24.311Z,7.85
2023-05-09T05:48:28.406Z,7.68
2023-05-09T05:49:31.696Z,8.63
2023-05-09T05:50:35.502Z,8.27
2023-05-09T05:51:39.749Z,8.77
2023-05-09T05:52:45.305Z,7.20
2023-05-09T05:53:52.193Z,6.30
2023-05-09T05:54:56.651Z,9.45
2023-05-09T05:56:00.467Z,8.02
2023-05-09T05:57:03.537Z,9.02
2023-05-09T05:58:07.322Z,5.40
2023-05-09T05:59:13.394Z,7.90
2023-05-09T06:00:18.205Z,7.53
2023-05-09T06:01:26.668Z,7.70
2023-05-09T06:02:29.808Z,9.23
2023-05-09T06:03:33.591Z,14.88
2023-05-09T06:04:40.978Z,8.80
2023-05-09T06:05:47.744Z,10.13
2023-05-09T06:06:51.189Z,6.22
2023-05-09T06:07:54.941Z,12.43
2023-05-09T06:08:58.423Z,9.88
2023-05-09T06:10:02.183Z,3.72
2023-05-09T06:11:06.810Z,9.02
2023-05-09T06:12:10.575Z,7.25
2023-05-09T06:13:14.121Z,6.85
2023-05-09T06:14:21.509Z,12.18
2023-05-09T06:15:25.239Z,4.88
2023-05-09T06:16:28.823Z,6.22
2023-05-09T06:17:32.564Z,8.27
2023-05-09T06:18:38.242Z,5.63
2023-05-09T06:19:41.742Z,6.38
2023-05-09T06:20:45.563Z,5.35
2023-05-09T06:21:48.618Z,11.55
2023-05-09T06:22:51.865Z,6.90
2023-05-09T06:24:05.686Z,6.90
2023-05-09T06:25:14.278Z,8.82
2023-05-09T06:26:17.491Z,10.90
2023-05-09T06:27:20.992Z,5.65
2023-05-09T06:28:24.693Z,10.07
2023-05-09T06:29:27.750Z,6.22
2023-05-09T06:30:30.895Z,10.02
2023-05-09T06:31:39.408Z,4.43
2023-05-09T06:32:43.034Z,12.60
2023-05-09T06:33:46.718Z,4.13
2023-05-09T06:34:50.194Z,8.63
2023-05-09T06:35:53.279Z,11.80
2023-05-09T06:36:56.856Z,11.75
2023-05-09T06:38:00.165Z,9.93
2023-05-09T06:39:03.465Z,10.48
2023-05-09T06:40:07.775Z,11.70
2023-05-09T06:41:11.510Z,9.43
2023-05-09T06:42:15.169Z,13.38
2023-05-09T06:43:20.064Z,9.18
2023-05-09T06:44:23.296Z,6.93
2023-05-09T06:45:27.708Z,10.48
2023-05-09T06:46:30.788Z,9.57
2023-05-09T06:47:34.095Z,11.68
2023-05-09T06:48:37.617Z,8.60
2023-05-09T06:49:40.941Z,5.43
2023-05-09T06:50:44.622Z,6.82
2023-05-09T06:51:48.358Z,10.13
2023-05-09T06:52:51.760Z,13.55
2023-05-09T06:53:54.906Z,9.35
2023-05-09T06:54:58.541Z,8.90
2023-05-09T06:56:01.859Z,9.73
2023-05-09T06:57:04.880Z,9.98
2023-05-09T06:58:08.223Z,7.32
2023-05-09T06:59:16.912Z,7.93
2023-05-09T07:00:20.839Z,13.82
2023-05-09T07:01:24.559Z,6.60
2023-05-09T07:02:27.775Z,4.47
2023-05-09T07:03:31.766Z,7.97
2023-05-09T07:04:35.410Z,10.63
2023-05-09T07:05:39.311Z,7.75
2023-05-09T07:06:42.620Z,7.15
2023-05-09T07:07:46.202Z,4.88
2023-05-09T07:08:49.714Z,3.20
2023-05-09T07:10:00.636Z,7.45
2023-05-09T07:11:12.099Z,8.25
2023-05-09T07:12:15.666Z,6.90
2023-05-09T07:13:19.087Z,9.70
2023-05-09T07:14:22.181Z,5.50
2023-05-09T07:15:39.765Z,5.32
2023-05-09T07:16:45.680Z,6.05
2023-05-09T07:17:49.329Z,4.90
2023-05-09T07:18:52.611Z,5.65
2023-05-09T07:19:56.816Z,5.18
2023-05-09T07:21:00.258Z,7.82
2023-05-09T07:22:03.437Z,8.52
2023-05-09T07:23:06.539Z,8.02
2023-05-09T07:24:09.884Z,5.22
2023-05-09T07:25:13.177Z,6.13
2023-05-09T07:26:16.708Z,6.32
2023-05-09T07:27:20.115Z,5.57
2023-05-09T07:28:23.644Z,5.43
2023-05-09T07:29:27.673Z,7.65
2023-05-09T07:30:31.197Z,5.95
2023-05-09T07:31:36.685Z,7.32
2023-05-09T07:32:41.509Z,4.32
2023-05-09T07:33:45.199Z,10.02
2023-05-09T07:34:48.603Z,4.75
2023-05-09T07:35:53.799Z,5.18
2023-05-09T07:36:57.052Z,7.13
2023-05-09T07:38:00.287Z,5.45
2023-05-09T07:39:05.771Z,6.28
2023-05-09T07:40:09.646Z,9.70
2023-05-09T07:41:13.306Z,7.57
2023-05-09T07:42:17.431Z,7.07
2023-05-09T07:43:20.690Z,4.80
2023-05-09T07:44:24.275Z,6.72
2023-05-09T07:45:27.266Z,8.32
2023-05-09T07:46:30.823Z,6.78
2023-05-09T07:47:34.446Z,6.82
2023-05-09T07:48:38.123Z,4.80
2023-05-09T07:49:44.140Z,9.15
2023-05-09T07:50:47.600Z,6.72
2023-05-09T07:51:50.991Z,6.03
2023-05-09T07:52:56.486Z,7.53
2023-05-09T07:54:00.176Z,6.95
2023-05-09T07:55:03.507Z,5.38
2023-05-09T07:56:07.767Z,6.93
2023-05-09T07:57:10.911Z,5.55
2023-05-09T07:58:14.040Z,7.90
2023-05-09T07:59:17.830Z,7.30
2023-05-09T08:00:24.300Z,5.32
2023-05-09T08:01:27.721Z,5.75
2023-05-09T08:02:31.084Z,6.70
2023-05-09T08:03:34.270Z,7.95
2023-05-09T08:04:39.469Z,7.30
2023-05-09T08:05:42.665Z,10.00
2023-05-09T08:06:45.847Z,11.80
2023-05-09T08:07:49.299Z,5.95
2023-05-09T08:08:53.084Z,8.32
2023-05-09T08:09:56.834Z,10.38
2023-05-09T08:11:00.468Z,9.60
2023-05-09T08:12:04.345Z,7.10
2023-05-09T08:13:08.265Z,6.85
2023-05-09T08:14:12.783Z,5.72
2023-05-09T08:15:17.838Z,10.90
2023-05-09T08:16:21.851Z,4.55
2023-05-09T08:17:25.549Z,4.78
2023-05-09T08:18:28.961Z,6.20
2023-05-09T08:19:32.394Z,4.95
2023-05-09T08:20:36.035Z,4.97
2023-05-09T08:21:39.694Z,4.50
2023-05-09T08:22:43.393Z,3.42
2023-05-09T08:23:47.051Z,5.65
2023-05-09T08:24:50.758Z,6.47
2023-05-09T08:25:55.437Z,6.18
2023-05-09T08:26:58.666Z,5.68
2023-05-09T08:28:02.166Z,6.80
2023-05-09T08:29:05.723Z,12.68
2023-05-09T08:30:09.393Z,11.32
2023-05-09T08:31:12.657Z,7.63
2023-05-09T08:32:16.052Z,8.40
2023-05-09T08:33:18.989Z,11.55
2023-05-09T08:34:22.589Z,7.28
2023-05-09T08:35:25.866Z,5.50
2023-05-09T08:36:29.403Z,6.65
2023-05-09T08:37:32.565Z,11.45
2023-05-09T08:38:36.786Z,6.10
2023-05-09T08:39:40.099Z,8.95
2023-05-09T08:40:43.300Z,7.07
2023-05-09T08:41:47.067Z,9.23
2023-05-09T08:42:50.633Z,5.38
2023-05-09T08:43:54.791Z,8.25
2023-05-09T08:44:58.090Z,7.70
2023-05-09T08:46:04.425Z,7.47
2023-05-09T08:47:07.616Z,5.30
2023-05-09T08:48:10.734Z,11.13
2023-05-09T08:49:13.721Z,9.80
2023-05-09T08:50:17.874Z,8.68
2023-05-09T08:51:22.365Z,5.18
2023-05-09T08:52:25.926Z,4.60
2023-05-09T08:53:29.430Z,5.95
2023-05-09T08:54:32.339Z,7.90
2023-05-09T08:55:38.908Z,9.18
2023-05-09T08:56:42.627Z,10.85
2023-05-09T08:57:45.767Z,6.90
2023-05-09T08:58:48.819Z,11.13
2023-05-09T08:59:53.420Z,6.05
2023-05-09T09:00:56.566Z,9.23
2023-05-09T09:01:59.605Z,8.10
2023-05-09T09:03:04.965Z,8.23
2023-05-09T09:04:09.226Z,8.48
2023-05-09T09:05:23.784Z,8.50
2023-05-09T09:06:35.517Z,10.38
2023-05-09T09:07:39.076Z,5.40
2023-05-09T09:08:43.165Z,8.20
2023-05-09T09:09:48.237Z,5.88
2023-05-09T09:10:51.697Z,5.60
2023-05-09T09:11:56.349Z,7.13
2023-05-09T09:13:00.705Z,4.97
2023-05-09T09:14:12.841Z,7.63
2023-05-09T09:15:18.447Z,9.10
2023-05-09T09:16:22.565Z,10.35
2023-05-09T09:17:28.683Z,5.22
2023-05-09T09:18:32.291Z,5.05
2023-05-09T09:19:35.686Z,5.55
2023-05-09T09:20:46.305Z,6.13
2023-05-09T09:21:51.913Z,5.68
2023-05-09T09:23:01.581Z,9.45
2023-05-09T09:24:04.775Z,7.47
2023-05-09T09:25:08.108Z,6.45
2023-05-09T09:26:11.456Z,7.72
2023-05-09T09:27:14.462Z,5.60
2023-05-09T09:28:18.348Z,6.25
2023-05-09T09:29:21.612Z,5.43
2023-05-09T09:30:28.613Z,6.88
2023-05-09T09:31:33.932Z,7.32
2023-05-09T09:32:37.758Z,6.82
2023-05-09T09:33:41.389Z,8.82
2023-05-09T09:34:44.941Z,10.23
2023-05-09T09:35:52.206Z,11.25
2023-05-09T09:36:55.678Z,4.95
2023-05-09T09:38:02.076Z,8.95
2023-05-09T09:39:06.296Z,5.97
2023-05-09T09:40:10.651Z,8.68
2023-05-09T09:41:14.136Z,6.95
2023-05-09T09:42:18.646Z,6.80
2023-05-09T09:43:22.331Z,6.38
2023-05-09T09:44:25.897Z,7.95
2023-05-09T09:45:29.074Z,9.40
2023-05-09T09:46:41.284Z,8.73
2023-05-09T09:47:45.467Z,8.90
2023-05-09T09:48:57.920Z,8.65
2023-05-09T09:50:15.846Z,8.65
2023-05-09T09:51:19.982Z,6.03
2023-05-09T09:52:26.150Z,6.15
2023-05-09T09:53:32.261Z,7.93
2023-05-09T09:54:35.537Z,8.52
2023-05-09T09:55:38.598Z,10.98
2023-05-09T09:56:54.223Z,6.57
2023-05-09T09:57:57.826Z,10.80
2023-05-09T09:59:12.427Z,6.32
2023-05-09T10:00:17.211Z,10.73
2023-05-09T10:01:21.358Z,8.60
2023-05-09T10:02:25.352Z,8.23
2023-05-09T10:03:36.360Z,8.25
2023-05-09T10:04:42.389Z,9.02
2023-05-09T10:05:46.234Z,7.95
2023-05-09T10:06:56.609Z,9.40
2023-05-09T10:08:03.851Z,8.07
2023-05-09T10:09:07.321Z,6.70
2023-05-09T10:10:11.383Z,5.85
2023-05-09T10:11:14.919Z,4.82
2023-05-09T10:12:20.537Z,6.93
2023-05-09T10:13:23.840Z,10.07
2023-05-09T10:14:27.654Z,5.90
2023-05-09T10:15:41.533Z,4.55
2023-05-09T10:16:50.180Z,10.35
2023-05-09T10:17:58.413Z,9.55
2023-05-09T10:19:01.987Z,8.18
2023-05-09T10:20:06.585Z,7.65
2023-05-09T10:21:09.685Z,6.32
2023-05-09T10:22:13.767Z,3.05
2023-05-09T10:23:16.698Z,7.88
2023-05-09T10:24:25.458Z,10.55
2023-05-09T10:25:34.452Z,5.10
2023-05-09T10:26:38.649Z,10.75
2023-05-09T10:27:42.765Z,8.30
2023-05-09T10:28:47.193Z,5.50
2023-05-09T10:30:12.002Z,7.05
2023-05-09T10:31:27.916Z,6.70
2023-05-09T10:32:43.780Z,9.73
2023-05-09T10:33:51.338Z,5.95
2023-05-09T10:34:58.701Z,8.32
2023-05-09T10:36:02.478Z,5.32
2023-05-09T10:37:06.106Z,4.28
2023-05-09T10:38:10.530Z,6.70
2023-05-09T10:39:13.364Z,11.55
2023-05-09T10:40:16.477Z,6.45
2023-05-09T10:41:19.662Z,7.70
2023-05-09T10:42:24.746Z,6.65
2023-05-09T10:43:28.811Z,6.78
2023-05-09T10:44:32.510Z,10.50
2023-05-09T10:45:35.558Z,7.68
2023-05-09T10:46:38.720Z,12.23
2023-05-09T10:47:42.699Z,11.70
2023-05-09T10:48:45.807Z,9.38
2023-05-09T10:50:09.215Z,5.68
2023-05-09T10:51:12.918Z,3.80
2023-05-09T10:52:16.384Z,7.30
2023-05-09T10:53:20.350Z,6.97
2023-05-09T10:54:31.116Z,7.28
2023-05-09T10:56:03.480Z,7.20
2023-05-09T10:57:09.113Z,7.07
2023-05-09T10:58:21.964Z,4.05
2023-05-09T10:59:46.991Z,7.25
2023-05-09T11:00:50.869Z,7.38
2023-05-09T11:02:01.864Z,8.70
2023-05-09T11:03:10.671Z,5.03
2023-05-09T11:04:17.556Z,9.90
2023-05-09T11:05:21.076Z,4.35
2023-05-09T11:06:46.682Z,5.13
2023-05-09T11:07:51.484Z,4.88
2023-05-09T11:08:55.006Z,4.40
2023-05-09T11:10:08.923Z,4.22
2023-05-09T11:11:27.163Z,4.05
2023-05-09T11:12:30.405Z,7.93
2023-05-09T11:13:38.500Z,8.00
2023-05-09T11:14:49.214Z,8.88
2023-05-09T11:16:01.837Z,5.95
2023-05-09T11:17:07.445Z,5.25
2023-05-09T11:18:11.124Z,5.53
2023-05-09T11:19:16.167Z,4.00
2023-05-09T11:20:19.246Z,2.22
2023-05-09T11:21:22.659Z,8.55
2023-05-09T11:22:44.476Z,7.15
2023-05-09T11:23:47.864Z,6.75
2023-05-09T11:24:52.943Z,4.00
2023-05-09T11:26:04.746Z,3.33
2023-05-09T11:27:23.785Z,3.83
2023-05-09T11:28:32.219Z,5.47
2023-05-09T11:29:45.861Z,3.90
2023-05-09T11:30:49.472Z,4.53
2023-05-09T11:32:08.578Z,3.53
2023-05-09T11:33:24.996Z,4.90
2023-05-09T11:34:28.547Z,2.58
2023-05-09T11:35:32.505Z,6.13
2023-05-09T11:36:36.106Z,5.55
2023-05-09T11:38:00.637Z,6.03
2023-05-09T11:39:10.771Z,3.67
2023-05-09T11:41:17.918Z,2.13
2023-05-09T11:42:22.157Z,3.95
2023-05-09T11:43:25.181Z,2.92
2023-05-09T11:44:28.903Z,4.13
2023-05-09T11:45:33.648Z,4.03
2023-05-09T11:46:37.869Z,6.10
2023-05-09T11:47:41.418Z,4.85
2023-05-09T11:48:44.698Z,6.15
2023-05-09T11:49:49.396Z,3.45
2023-05-09T11:50:52.709Z,5.32
2023-05-09T11:52:00.345Z,2.95
2023-05-09T11:53:03.706Z,2.90
2023-05-09T11:54:09.455Z,4.72
2023-05-09T11:55:20.629Z,3.90
2023-05-09T11:56:23.938Z,5.43
2023-05-09T11:57:26.996Z,3.05
2023-05-09T11:58:30.395Z,3.28
2023-05-09T11:59:37.530Z,3.45
2023-05-09T12:00:52.636Z,2.10
2023-05-09T12:01:56.271Z,2.35
2023-05-09T12:02:59.891Z,1.73
2023-05-09T12:04:03.772Z,4.22
2023-05-09T12:05:19.804Z,2.63
2023-05-09T12:06:23.389Z,2.25
2023-05-09T12:07:26.697Z,2.75
2023-05-09T12:08:30.392Z,7.60
2023-05-09T12:09:34.394Z,2.40
2023-05-09T12:10:41.021Z,2.30
2023-05-09T12:12:00.818Z,5.30
2023-05-09T12:13:04.118Z,1.98
2023-05-09T12:14:07.076Z,3.60
2023-05-09T12:15:10.603Z,3.72
2023-05-09T12:16:13.934Z,3.22
2023-05-09T12:17:17.213Z,3.92
2023-05-09T12:18:20.492Z,2.22
2023-05-09T12:19:26.393Z,4.43
2023-05-09T12:20:29.279Z,2.20
2023-05-09T12:21:32.700Z,2.78
2023-05-09T12:22:38.485Z,6.38
2023-05-09T12:23:41.722Z,4.22
2023-05-09T12:24:45.349Z,2.15
2023-05-09T12:25:55.660Z,1.98
2023-05-09T12:27:00.408Z,7.38
2023-05-09T12:28:04.281Z,3.63
2023-05-09T12:29:07.334Z,5.45
2023-05-09T12:30:16.433Z,2.75
2023-05-09T12:31:20.131Z,5.18
2023-05-09T12:32:23.972Z,4.22
2023-05-09T12:33:27.992Z,5.70
2023-05-09T12:34:31.694Z,3.10
2023-05-09T12:35:36.034Z,6.00
2023-05-09T12:36:40.107Z,3.65
2023-05-09T12:37:59.682Z,4.75
2023-05-09T12:39:03.216Z,4.80
2023-05-09T12:40:16.353Z,4.63
2023-05-09T12:41:35.058Z,5.50
2023-05-09T12:42:46.827Z,6.20
2023-05-09T12:43:50.839Z,4.50
2023-05-09T12:44:54.556Z,5.18
2023-05-09T12:45:58.945Z,4.10
2023-05-09T12:47:05.212Z,5.35
2023-05-09T12:48:09.767Z,2.60
2023-05-09T12:49:23.112Z,5.75
2023-05-09T12:50:33.281Z,2.10
2023-05-09T12:51:36.679Z,4.85
2023-05-09T12:52:50.686Z,2.22
2023-05-09T12:54:05.725Z,2.10
2023-05-09T12:55:13.977Z,5.05
2023-05-09T12:56:21.033Z,3.17
2023-05-09T12:57:25.485Z,4.03
2023-05-09T12:58:32.600Z,5.28
2023-05-09T12:59:35.962Z,6.45
2023-05-09T13:00:45.474Z,6.57
2023-05-09T13:01:59.088Z,4.20
2023-05-09T13:03:02.965Z,2.90
2023-05-09T13:04:07.660Z,1.77
2023-05-09T13:05:16.249Z,5.32
2023-05-09T13:06:20.251Z,3.17
2023-05-09T13:07:23.646Z,4.97
2023-05-09T13:08:27.038Z,3.13
2023-05-09T13:09:30.312Z,6.05
2023-05-09T13:10:33.871Z,5.60
2023-05-09T13:11:38.449Z,7.05
2023-05-09T13:12:45.636Z,5.40
2023-05-09T13:13:48.876Z,2.97
2023-05-09T13:14:52.397Z,3.97
2023-05-09T13:15:56.024Z,4.32
2023-05-09T13:16:59.637Z,4.68
2023-05-09T13:18:03.252Z,4.53
2023-05-09T13:19:06.547Z,5.05
2023-05-09T13:20:10.817Z,3.10
2023-05-09T13:21:14.431Z,5.45
2023-05-09T13:22:18.396Z,4.55
2023-05-09T13:23:23.225Z,5.68
2023-05-09T13:24:26.519Z,3.17
2023-05-09T13:25:30.218Z,3.08
2023-05-09T13:26:34.366Z,3.80
2023-05-09T13:27:38.237Z,5.95
2023-05-09T13:28:42.025Z,4.30
2023-05-09T13:29:45.974Z,3.95
2023-05-09T13:30:49.501Z,4.63
2023-05-09T13:31:53.170Z,10.10
2023-05-09T13:32:56.252Z,5.88
2023-05-09T13:33:59.362Z,5.35
2023-05-09T13:35:08.518Z,5.68
2023-05-09T13:36:11.953Z,2.88
2023-05-09T13:37:15.480Z,1.90
2023-05-09T13:38:19.355Z,4.28
2023-05-09T13:39:22.398Z,3.28
2023-05-09T13:40:25.757Z,3.42
2023-05-09T13:41:31.826Z,6.30
2023-05-09T13:42:35.832Z,2.85
2023-05-09T13:43:39.934Z,2.95
2023-05-09T13:44:43.181Z,2.95
2023-05-09T13:45:46.717Z,4.43
2023-05-09T13:46:50.480Z,7.75
2023-05-09T13:47:54.233Z,4.20
2023-05-09T13:48:57.679Z,5.07
2023-05-09T13:50:01.099Z,5.63
2023-05-09T13:51:06.767Z,3.88
2023-05-09T13:52:09.955Z,2.42
2023-05-09T13:53:13.201Z,2.63
2023-05-09T13:54:17.780Z,4.63
2023-05-09T13:55:21.500Z,0.88
2023-05-09T13:56:24.816Z,5.60
2023-05-09T13:57:28.994Z,3.75
2023-05-09T13:58:32.546Z,2.25
2023-05-09T13:59:36.252Z,4.13
2023-05-09T14:00:39.651Z,3.40
2023-05-09T14:01:43.519Z,5.00
2023-05-09T14:02:47.017Z,4.32
2023-05-09T14:03:50.503Z,6.30
2023-05-09T14:04:54.050Z,4.97
2023-05-09T14:05:56.981Z,3.33
2023-05-09T14:07:00.818Z,6.18
2023-05-09T14:08:04.702Z,4.30
2023-05-09T14:09:09.597Z,3.50
2023-05-09T14:10:13.517Z,6.75
2023-05-09T14:11:16.850Z,8.18
2023-05-09T14:12:19.844Z,6.18
2023-05-09T14:13:23.278Z,7.32
2023-05-09T14:14:26.474Z,5.88
2023-05-09T14:15:30.892Z,4.80
2023-05-09T14:16:34.361Z,3.15
2023-05-09T14:17:38.065Z,10.90
2023-05-09T14:18:41.566Z,5.10
2023-05-09T14:19:44.713Z,10.75
2023-05-09T14:20:48.249Z,5.70
2023-05-09T14:21:51.828Z,5.22
2023-05-09T14:22:56.016Z,3.63
2023-05-09T14:23:59.219Z,2.20
2023-05-09T14:25:03.031Z,2.17